createdAt,value
2019-05-18T00:00:22.814Z,11.10
2019-05-18T00:02:52.128Z,11.13
2019-05-18T00:05:21.382Z,12.47
2019-05-18T00:07:50.669Z,11.63
2019-05-18T00:10:21.085Z,13.10
2019-05-18T00:12:50.318Z,12.13
2019-05-18T00:15:19.507Z,13.63
2019-05-18T00:17:48.761Z,13.27
2019-05-18T00:20:17.951Z,12.90
2019-05-18T00:22:47.166Z,13.83
2019-05-18T00:25:16.427Z,15.10
2019-05-18T00:27:45.667Z,15.93
2019-05-18T00:30:15.208Z,15.37
2019-05-18T00:32:44.440Z,15.80
2019-05-18T00:35:16.514Z,14.73
2019-05-18T00:37:44.691Z,14.60
2019-05-18T00:40:14.031Z,15.80
2019-05-18T00:42:43.289Z,14.77
2019-05-18T00:45:12.847Z,15.23
2019-05-18T00:47:42.460Z,14.53
2019-05-18T00:50:12.175Z,14.67
2019-05-18T00:52:41.441Z,13.00
2019-05-18T00:55:11.054Z,13.33
2019-05-18T00:57:40.262Z,12.23
2019-05-18T01:00:10.287Z,11.53
2019-05-18T01:02:39.476Z,11.30
2019-05-18T01:05:08.738Z,11.60
2019-05-18T01:07:38.158Z,11.50
2019-05-18T01:10:08.075Z,11.40
2019-05-18T01:12:37.331Z,11.03
2019-05-18T01:15:08.244Z,11.10
2019-05-18T01:17:37.608Z,10.77
2019-05-18T01:20:07.093Z,11.83
2019-05-18T01:22:36.352Z,11.33
2019-05-18T01:25:06.194Z,11.67
2019-05-18T01:27:35.430Z,10.97
2019-05-18T01:30:05.411Z,11.70
2019-05-18T01:32:34.642Z,11.07
2019-05-18T01:35:04.399Z,11.33
2019-05-18T01:37:33.592Z,11.57
2019-05-18T01:40:02.752Z,12.03
2019-05-18T01:42:32.012Z,12.53
2019-05-18T01:45:15.409Z,12.97
2019-05-18T01:47:32.167Z,14.07
2019-05-18T01:50:01.428Z,14.67
2019-05-18T01:52:30.682Z,13.67
2019-05-18T01:54:59.978Z,13.47
2019-05-18T01:57:29.183Z,14.00
2019-05-18T01:59:58.336Z,13.83
2019-05-18T02:02:27.541Z,14.40
2019-05-18T02:04:56.758Z,13.37
2019-05-18T02:07:25.964Z,14.23
2019-05-18T02:09:55.229Z,15.17
2019-05-18T02:12:24.499Z,14.20
2019-05-18T02:14:53.653Z,15.17
2019-05-18T02:17:22.972Z,14.07
2019-05-18T02:19:52.295Z,14.10
2019-05-18T02:22:21.471Z,14.77
2019-05-18T02:24:50.732Z,14.20
2019-05-18T02:27:19.993Z,14.57
2019-05-18T02:29:49.220Z,13.77
2019-05-18T02:32:18.413Z,14.53
2019-05-18T02:34:47.671Z,13.87
2019-05-18T02:37:16.956Z,14.40
2019-05-18T02:39:46.195Z,14.00
2019-05-18T02:42:15.835Z,14.60
2019-05-18T02:44:45.069Z,14.07
2019-05-18T02:47:14.387Z,14.47
2019-05-18T02:49:43.802Z,15.33
2019-05-18T02:52:13.029Z,14.13
2019-05-18T02:54:42.217Z,15.13
2019-05-18T02:57:11.442Z,13.93
2019-05-18T02:59:40.618Z,14.10
2019-05-18T03:02:09.784Z,13.43
2019-05-18T03:04:39.047Z,12.50
2019-05-18T03:07:08.284Z,13.13
2019-05-18T03:09:37.629Z,12.37
2019-05-18T03:12:06.869Z,11.57
2019-05-18T03:14:36.194Z,12.33
2019-05-18T03:17:05.476Z,12.63
2019-05-18T03:19:34.903Z,13.33
2019-05-18T03:22:04.202Z,13.50
2019-05-18T03:24:33.392Z,15.23
2019-05-18T03:27:02.567Z,15.17
2019-05-18T03:29:31.887Z,25.43
2019-05-18T03:32:01.085Z,24.70
2019-05-18T03:34:30.433Z,24.20
2019-05-18T03:36:59.759Z,25.20
2019-05-18T03:39:29.019Z,23.57
2019-05-18T03:41:58.212Z,18.97
2019-05-18T03:44:27.463Z,14.40
2019-05-18T03:46:56.708Z,18.47
2019-05-18T03:49:27.622Z,17.87
2019-05-18T03:51:56.784Z,16.33
2019-05-18T03:54:25.978Z,13.13
2019-05-18T03:56:55.216Z,13.87
2019-05-18T03:59:24.398Z,12.90
2019-05-18T04:01:53.724Z,11.97
2019-05-18T04:04:22.985Z,12.23
2019-05-18T04:06:52.224Z,12.37
2019-05-18T04:09:21.403Z,12.77
2019-05-18T04:11:50.562Z,13.10
2019-05-18T04:14:19.763Z,12.87
2019-05-18T04:16:49.016Z,12.17
2019-05-18T04:19:18.186Z,12.47
2019-05-18T04:21:47.441Z,12.57
2019-05-18T04:24:16.752Z,12.30
2019-05-18T04:26:46.010Z,12.13
2019-05-18T04:29:15.315Z,11.33
2019-05-18T04:31:44.584Z,12.60
2019-05-18T04:34:13.835Z,12.60
2019-05-18T04:36:43.172Z,11.97
2019-05-18T04:39:12.483Z,11.73
2019-05-18T04:41:41.662Z,11.43
2019-05-18T04:44:10.855Z,11.87
2019-05-18T04:46:40.376Z,12.13
2019-05-18T04:49:09.542Z,12.83
2019-05-18T04:51:38.780Z,12.63
2019-05-18T04:54:08.017Z,12.73
2019-05-18T04:56:37.287Z,11.57
2019-05-18T04:59:06.520Z,11.03
2019-05-18T05:01:35.713Z,11.40
2019-05-18T05:04:04.931Z,10.80
2019-05-18T05:06:34.271Z,9.80
2019-05-18T05:09:05.392Z,10.90
2019-05-18T05:11:34.581Z,10.23
2019-05-18T05:14:04.763Z,10.30
2019-05-18T05:16:34.120Z,10.33
2019-05-18T05:19:03.312Z,9.97
2019-05-18T05:21:32.528Z,9.33
2019-05-18T05:24:01.788Z,10.03
2019-05-18T05:26:31.050Z,8.67
2019-05-18T05:29:00.215Z,9.63
2019-05-18T05:31:29.391Z,8.37
2019-05-18T05:33:58.578Z,8.53
2019-05-18T05:36:27.851Z,9.50
2019-05-18T05:38:57.012Z,9.50
2019-05-18T05:41:26.272Z,11.97
2019-05-18T05:43:55.450Z,12.43
2019-05-18T05:46:24.642Z,11.27
2019-05-18T05:48:53.882Z,10.40
2019-05-18T05:51:23.112Z,10.23
2019-05-18T05:53:52.269Z,10.23
2019-05-18T05:56:21.448Z,9.53
2019-05-18T05:58:50.603Z,9.50
2019-05-18T06:01:19.772Z,10.27
2019-05-18T06:03:48.948Z,10.63
2019-05-18T06:06:18.171Z,9.97
2019-05-18T06:08:47.352Z,10.43
2019-05-18T06:11:16.511Z,10.73
2019-05-18T06:13:45.768Z,11.33
2019-05-18T06:16:14.999Z,10.00
2019-05-18T06:18:44.313Z,10.30
2019-05-18T06:21:13.536Z,10.07
2019-05-18T06:23:42.731Z,10.50
2019-05-18T06:26:11.914Z,10.60
2019-05-18T06:28:41.242Z,10.53
2019-05-18T06:31:10.510Z,10.65
2019-05-18T06:33:39.853Z,10.32
2019-05-18T06:36:09.216Z,7.40
2019-05-18T06:38:38.408Z,10.15
2019-05-18T06:41:07.563Z,6.65
2019-05-18T06:43:36.747Z,6.75
2019-05-18T06:46:05.987Z,9.40
2019-05-18T06:48:35.163Z,7.08
2019-05-18T06:51:07.378Z,6.83
2019-05-18T06:53:35.251Z,10.15
2019-05-18T06:56:04.678Z,6.85
2019-05-18T06:58:35.461Z,6.70
2019-05-18T07:01:04.736Z,6.95
2019-05-18T07:03:33.975Z,7.08
2019-05-18T07:06:03.190Z,6.65
2019-05-18T07:08:32.455Z,7.15
2019-05-18T07:11:01.676Z,7.35
2019-05-18T07:13:30.929Z,7.78
2019-05-18T07:16:00.361Z,7.95
2019-05-18T07:18:29.679Z,7.37
2019-05-18T07:20:58.955Z,7.80
2019-05-18T07:23:28.268Z,8.83
2019-05-18T07:25:57.658Z,7.80
2019-05-18T07:28:26.855Z,7.95
2019-05-18T07:30:56.496Z,8.50
2019-05-18T07:33:26.227Z,8.60
2019-05-18T07:35:55.556Z,7.85
2019-05-18T07:38:24.865Z,6.92
2019-05-18T07:40:54.048Z,7.70
2019-05-18T07:43:23.334Z,7.53
2019-05-18T07:45:52.511Z,7.58
2019-05-18T07:48:21.675Z,6.92
2019-05-18T07:50:50.852Z,6.25
2019-05-18T07:53:20.039Z,6.80
2019-05-18T07:55:49.364Z,6.80
2019-05-18T07:58:18.635Z,6.55
2019-05-18T08:00:48.564Z,6.87
2019-05-18T08:03:17.805Z,6.42
2019-05-18T08:05:47.094Z,8.53
2019-05-18T08:08:16.361Z,6.50
2019-05-18T08:10:45.657Z,10.65
2019-05-18T08:13:14.937Z,8.98
2019-05-18T08:15:44.145Z,9.98
2019-05-18T08:18:13.331Z,10.65
2019-05-18T08:20:42.602Z,11.22
2019-05-18T08:23:11.767Z,12.47
2019-05-18T08:25:41.009Z,11.48
2019-05-18T08:28:10.434Z,11.35
2019-05-18T08:30:39.624Z,11.22
2019-05-18T08:33:08.895Z,10.30
2019-05-18T08:35:38.130Z,11.75
2019-05-18T08:38:07.470Z,10.88
2019-05-18T08:40:36.642Z,12.33
2019-05-18T08:43:05.915Z,12.68
2019-05-18T08:45:35.072Z,27.63
2019-05-18T08:48:04.482Z,17.03
2019-05-18T08:50:33.710Z,10.63
2019-05-18T08:53:03.574Z,9.67
2019-05-18T08:55:33.170Z,10.47
2019-05-18T08:58:02.403Z,9.23
2019-05-18T09:00:31.638Z,10.53
2019-05-18T09:03:00.836Z,9.80
2019-05-18T09:05:30.122Z,9.65
2019-05-18T09:07:59.406Z,10.03
2019-05-18T09:10:28.556Z,9.60
2019-05-18T09:12:57.748Z,10.75
2019-05-18T09:15:26.974Z,9.90
2019-05-18T09:17:56.203Z,10.23
2019-05-18T09:20:25.391Z,9.43
2019-05-18T09:22:54.718Z,8.85
2019-05-18T09:25:23.899Z,8.68
2019-05-18T09:27:53.168Z,8.40
2019-05-18T09:30:22.566Z,8.48
2019-05-18T09:32:51.757Z,5.97
2019-05-18T09:35:21.000Z,5.20
2019-05-18T09:37:50.246Z,4.72
2019-05-18T09:40:19.576Z,4.50
2019-05-18T09:42:48.756Z,4.57
2019-05-18T09:45:18.502Z,4.50
2019-05-18T09:47:47.699Z,4.83
2019-05-18T09:50:17.788Z,4.83
2019-05-18T09:52:46.975Z,4.25
2019-05-18T09:55:16.415Z,4.90
2019-05-18T09:57:45.600Z,4.53
2019-05-18T10:00:15.619Z,4.47
2019-05-18T10:02:44.791Z,4.50
2019-05-18T10:05:15.546Z,4.50
2019-05-18T10:07:44.730Z,4.87
2019-05-18T10:10:15.282Z,4.70
2019-05-18T10:12:44.548Z,4.90
2019-05-18T10:15:14.902Z,4.37
2019-05-18T10:17:44.279Z,4.90
2019-05-18T10:20:13.971Z,4.30
2019-05-18T10:22:55.563Z,5.37
2019-05-18T10:25:14.410Z,4.80
2019-05-18T10:27:43.636Z,5.13
2019-05-18T10:30:13.795Z,4.83
2019-05-18T10:32:42.947Z,4.40
2019-05-18T10:35:12.732Z,5.03
2019-05-18T10:37:41.991Z,4.40
2019-05-18T10:40:11.758Z,4.53
2019-05-18T10:42:41.055Z,5.40
2019-05-18T10:45:10.712Z,5.27
2019-05-18T10:47:39.866Z,5.83
2019-05-18T10:50:09.531Z,5.27
2019-05-18T10:52:38.760Z,5.50
2019-05-18T10:55:08.239Z,6.30
2019-05-18T10:57:37.384Z,6.57
2019-05-18T11:00:07.134Z,6.93
2019-05-18T11:02:36.366Z,6.28
2019-05-18T11:05:06.090Z,6.40
2019-05-18T11:07:35.256Z,6.37
2019-05-18T11:10:04.964Z,5.43
2019-05-18T11:12:34.218Z,5.20
2019-05-18T11:15:04.617Z,5.20
2019-05-18T11:17:33.863Z,5.80
2019-05-18T11:20:03.225Z,6.40
2019-05-18T11:22:32.452Z,5.22
2019-05-18T11:25:01.649Z,5.80
2019-05-18T11:27:30.807Z,5.75
2019-05-18T11:29:59.995Z,6.45
2019-05-18T11:32:29.362Z,6.90
2019-05-18T11:34:58.656Z,6.50
2019-05-18T11:37:27.927Z,7.10
2019-05-18T11:39:57.180Z,7.65
2019-05-18T11:42:26.341Z,6.40
2019-05-18T11:44:55.523Z,6.15
2019-05-18T11:47:24.689Z,6.10
2019-05-18T11:49:53.920Z,5.72
2019-05-18T11:52:23.207Z,5.70
2019-05-18T11:54:52.387Z,5.85
2019-05-18T11:57:21.618Z,5.53
2019-05-18T11:59:50.803Z,5.50
2019-05-18T12:02:20.044Z,5.30
2019-05-18T12:04:49.224Z,5.20
2019-05-18T12:07:18.446Z,5.70
2019-05-18T12:09:47.631Z,5.33
2019-05-18T12:12:16.869Z,5.22
2019-05-18T12:14:46.184Z,3.90
2019-05-18T12:17:15.387Z,5.05
2019-05-18T12:19:44.623Z,3.20
2019-05-18T12:22:13.910Z,5.35
2019-05-18T12:24:43.076Z,5.08
2019-05-18T12:27:12.340Z,2.72
2019-05-18T12:29:41.646Z,4.30
2019-05-18T12:32:10.833Z,4.97
2019-05-18T12:34:44.330Z,4.90
2019-05-18T12:37:22.171Z,3.40
2019-05-18T12:39:52.611Z,5.37
2019-05-18T12:42:22.287Z,3.83
2019-05-18T12:44:51.541Z,5.20
2019-05-18T12:47:20.808Z,3.67
2019-05-18T12:49:50.146Z,5.72
2019-05-18T12:52:19.506Z,2.70
2019-05-18T12:54:48.794Z,4.53
2019-05-18T12:57:18.090Z,3.08
2019-05-18T12:59:47.249Z,4.37
2019-05-18T13:02:16.425Z,3.17
2019-05-18T13:04:45.730Z,4.20
2019-05-18T13:07:15.011Z,3.30
2019-05-18T13:09:44.205Z,3.83
2019-05-18T13:12:13.463Z,3.10
2019-05-18T13:14:42.682Z,4.05
2019-05-18T13:17:11.971Z,4.00
2019-05-18T13:19:41.275Z,3.40
2019-05-18T13:22:10.455Z,3.87
2019-05-18T13:24:45.289Z,2.72
2019-05-18T13:27:10.583Z,4.20
2019-05-18T13:29:39.872Z,2.80
2019-05-18T13:32:09.039Z,4.20
2019-05-18T13:34:38.208Z,3.83
2019-05-18T13:37:07.463Z,4.20
2019-05-18T13:39:36.619Z,3.75
2019-05-18T13:42:05.814Z,3.90
2019-05-18T13:44:38.002Z,3.70
2019-05-18T13:47:05.953Z,4.28
2019-05-18T13:49:35.107Z,3.98
2019-05-18T13:52:04.295Z,3.67
2019-05-18T13:54:33.522Z,3.80
2019-05-18T13:57:02.783Z,4.20
2019-05-18T13:59:32.103Z,3.60
2019-05-18T14:02:01.270Z,3.50
2019-05-18T14:04:30.455Z,3.60
2019-05-18T14:06:59.611Z,2.95
2019-05-18T14:09:28.810Z,3.65
2019-05-18T14:11:58.047Z,3.95
2019-05-18T14:14:27.272Z,3.80
2019-05-18T14:16:56.487Z,3.65
2019-05-18T14:19:25.728Z,3.90
2019-05-18T14:21:55.137Z,3.45
2019-05-18T14:24:24.409Z,3.80
2019-05-18T14:26:53.619Z,3.52
2019-05-18T14:29:22.876Z,3.58
2019-05-18T14:31:52.117Z,3.55
2019-05-18T14:34:21.452Z,3.40
2019-05-18T14:36:50.621Z,4.10
2019-05-18T14:39:22.999Z,3.62
2019-05-18T14:41:50.753Z,3.50
2019-05-18T14:44:20.009Z,4.03
2019-05-18T14:46:49.159Z,3.80
2019-05-18T14:49:18.356Z,3.58
2019-05-18T14:51:47.668Z,4.03
2019-05-18T14:54:16.937Z,4.03
2019-05-18T14:56:46.163Z,3.90
2019-05-18T14:59:15.463Z,3.60
2019-05-18T15:01:44.709Z,4.10
2019-05-18T15:04:13.987Z,4.40
2019-05-18T15:06:43.153Z,4.00
2019-05-18T15:09:12.471Z,3.92
2019-05-18T15:11:41.695Z,4.40
2019-05-18T15:14:10.875Z,4.37
2019-05-18T15:16:40.037Z,4.10
2019-05-18T15:19:09.210Z,3.00
2019-05-18T15:21:38.387Z,4.10
2019-05-18T15:24:08.842Z,3.98
2019-05-18T15:26:38.207Z,3.75
2019-05-18T15:29:07.443Z,3.80
2019-05-18T15:31:36.837Z,4.25
2019-05-18T15:34:06.062Z,4.10
2019-05-18T15:36:35.316Z,4.20
2019-05-18T15:39:06.636Z,3.37
2019-05-18T15:41:35.891Z,4.30
2019-05-18T15:44:05.150Z,4.17
2019-05-18T15:46:34.327Z,4.03
2019-05-18T15:49:03.577Z,4.33
2019-05-18T15:51:33.027Z,4.33
2019-05-18T15:54:02.447Z,4.80
2019-05-18T15:56:31.691Z,4.62
2019-05-18T15:59:01.035Z,4.72
2019-05-18T16:01:30.223Z,4.65
2019-05-18T16:03:59.380Z,4.27
2019-05-18T16:06:28.675Z,4.58
2019-05-18T16:08:57.930Z,4.37
2019-05-18T16:11:27.215Z,4.45
2019-05-18T16:13:56.395Z,4.95
2019-05-18T16:16:25.647Z,4.50
2019-05-18T16:18:54.852Z,4.80
2019-05-18T16:21:24.019Z,5.20
2019-05-18T16:23:53.269Z,5.92
2019-05-18T16:26:22.516Z,9.05
2019-05-18T16:28:51.739Z,7.83
2019-05-18T16:31:20.963Z,24.60
2019-05-18T16:33:50.151Z,7.83
2019-05-18T16:36:19.411Z,4.58
2019-05-18T16:38:48.560Z,4.55
2019-05-18T16:41:17.743Z,5.33
2019-05-18T16:43:46.895Z,7.78
2019-05-18T16:46:16.091Z,13.00
2019-05-18T16:48:45.321Z,4.30
2019-05-18T16:51:14.563Z,4.10
2019-05-18T16:53:48.018Z,4.40
2019-05-18T16:56:14.870Z,7.60
2019-05-18T16:58:44.092Z,5.08
2019-05-18T17:01:13.319Z,4.57
2019-05-18T17:03:42.599Z,7.73
2019-05-18T17:06:11.768Z,9.47
2019-05-18T17:08:41.132Z,5.80
2019-05-18T17:11:10.320Z,11.97
2019-05-18T17:13:39.643Z,4.93
2019-05-18T17:16:08.801Z,4.65
2019-05-18T17:18:38.092Z,5.03
2019-05-18T17:21:07.401Z,4.85
2019-05-18T17:23:36.649Z,5.05
2019-05-18T17:26:05.804Z,4.50
2019-05-18T17:28:35.062Z,4.77
2019-05-18T17:31:04.291Z,4.53
2019-05-18T17:33:33.506Z,4.40
2019-05-18T17:36:02.695Z,4.10
2019-05-18T17:38:31.867Z,5.27
2019-05-18T17:41:01.090Z,4.33
2019-05-18T17:43:30.579Z,4.67
2019-05-18T17:45:59.962Z,4.30
2019-05-18T17:48:29.365Z,4.27
2019-05-18T17:50:58.653Z,4.30
2019-05-18T17:53:27.803Z,4.67
2019-05-18T17:55:56.982Z,4.47
2019-05-18T17:58:26.136Z,5.97
2019-05-18T18:00:55.387Z,8.73
2019-05-18T18:03:24.547Z,9.00
2019-05-18T18:05:53.802Z,7.53
2019-05-18T18:08:22.952Z,12.33
2019-05-18T18:10:52.144Z,5.67
2019-05-18T18:13:21.456Z,10.70
2019-05-18T18:15:50.730Z,13.43
2019-05-18T18:18:19.978Z,4.40
2019-05-18T18:20:49.150Z,9.63
2019-05-18T18:23:18.415Z,8.10
2019-05-18T18:25:47.666Z,9.07
2019-05-18T18:28:16.820Z,5.40
2019-05-18T18:30:46.002Z,7.50
2019-05-18T18:33:15.237Z,6.97
2019-05-18T18:35:44.573Z,7.47
2019-05-18T18:38:13.809Z,5.27
2019-05-18T18:40:43.860Z,5.17
2019-05-18T18:43:13.129Z,5.47
2019-05-18T18:45:42.767Z,6.90
2019-05-18T18:48:11.927Z,6.70
2019-05-18T18:50:41.106Z,8.47
2019-05-18T18:53:10.417Z,4.23
2019-05-18T18:55:39.782Z,4.00
2019-05-18T18:58:09.019Z,4.43
2019-05-18T19:00:38.370Z,4.73
2019-05-18T19:03:07.595Z,4.33
2019-05-18T19:05:37.015Z,4.50
2019-05-18T19:08:06.335Z,4.50
2019-05-18T19:10:35.497Z,4.93
2019-05-18T19:13:04.747Z,4.93
2019-05-18T19:15:33.977Z,4.70
2019-05-18T19:18:03.263Z,4.73
2019-05-18T19:20:32.493Z,4.53
2019-05-18T19:23:01.762Z,4.93
2019-05-18T19:25:30.916Z,5.30
2019-05-18T19:28:00.108Z,5.17
2019-05-18T19:30:29.263Z,5.30
2019-05-18T19:32:58.494Z,5.17
2019-05-18T19:35:27.645Z,5.10
2019-05-18T19:37:57.505Z,5.47
2019-05-18T19:40:26.730Z,3.50
2019-05-18T19:42:55.986Z,5.00
2019-05-18T19:45:25.206Z,5.83
2019-05-18T19:47:54.532Z,5.80
2019-05-18T19:50:23.767Z,6.10
2019-05-18T19:52:53.039Z,7.47
2019-05-18T19:55:22.272Z,7.30
2019-05-18T19:57:51.459Z,6.87
2019-05-18T20:00:21.164Z,6.03
2019-05-18T20:02:50.350Z,6.20
2019-05-18T20:05:19.672Z,6.20
2019-05-18T20:07:49.007Z,6.33
2019-05-18T20:10:18.393Z,7.20
2019-05-18T20:12:47.639Z,6.90
2019-05-18T20:15:18.081Z,6.50
2019-05-18T20:17:47.335Z,6.30
2019-05-18T20:20:17.367Z,3.37
2019-05-18T20:22:46.603Z,6.23
2019-05-18T20:25:15.954Z,6.27
2019-05-18T20:27:45.192Z,6.13
2019-05-18T20:30:14.643Z,6.40
2019-05-18T20:32:43.924Z,3.90
2019-05-18T20:35:13.380Z,5.70
2019-05-18T20:37:42.539Z,5.80
2019-05-18T20:40:13.415Z,6.00
2019-05-18T20:42:42.646Z,5.50
2019-05-18T20:45:12.507Z,5.53
2019-05-18T20:47:41.679Z,5.40
2019-05-18T20:50:11.402Z,5.57
2019-05-18T20:52:40.603Z,5.70
2019-05-18T20:55:09.888Z,5.63
2019-05-18T20:57:39.087Z,5.70
2019-05-18T21:00:08.819Z,5.53
2019-05-18T21:02:37.991Z,5.60
2019-05-18T21:05:07.568Z,6.00
2019-05-18T21:07:36.727Z,6.23
2019-05-18T21:10:06.659Z,5.40
2019-05-18T21:12:35.967Z,6.07
2019-05-18T21:15:05.900Z,5.70
2019-05-18T21:17:35.241Z,5.70
2019-05-18T21:20:04.691Z,6.20
2019-05-18T21:22:34.000Z,6.13
2019-05-18T21:25:03.704Z,6.13
2019-05-18T21:27:33.094Z,5.80
2019-05-18T21:30:02.446Z,5.90
2019-05-18T21:32:31.666Z,5.53
2019-05-18T21:35:00.842Z,6.10
2019-05-18T21:37:30.094Z,5.60
2019-05-18T21:39:59.277Z,5.93
2019-05-18T21:42:28.888Z,6.30
2019-05-18T21:44:58.199Z,6.10
2019-05-18T21:47:27.455Z,5.80
2019-05-18T21:49:56.733Z,6.20
2019-05-18T21:52:25.988Z,6.53
2019-05-18T21:54:55.244Z,5.40
2019-05-18T21:57:24.656Z,6.37
2019-05-18T21:59:53.828Z,6.77
2019-05-18T22:02:23.678Z,7.20
2019-05-18T22:04:52.902Z,7.67
2019-05-18T22:07:22.112Z,8.00
2019-05-18T22:09:53.685Z,8.20
2019-05-18T22:12:22.568Z,8.43
2019-05-18T22:14:51.782Z,7.47
2019-05-18T22:17:21.072Z,7.93
2019-05-18T22:19:50.367Z,8.00
2019-05-18T22:22:19.631Z,7.70
2019-05-18T22:24:48.851Z,7.73
2019-05-18T22:27:18.036Z,7.60
2019-05-18T22:29:47.268Z,7.50
2019-05-18T22:32:16.557Z,8.33
2019-05-18T22:34:45.799Z,8.40
2019-05-18T22:37:15.056Z,8.00
2019-05-18T22:39:44.324Z,7.70
2019-05-18T22:42:13.539Z,7.23
2019-05-18T22:44:42.715Z,7.37
2019-05-18T22:47:11.868Z,7.13
2019-05-18T22:49:41.128Z,7.07
2019-05-18T22:52:11.054Z,6.37
2019-05-18T22:54:40.348Z,7.17
2019-05-18T22:57:09.681Z,7.20
2019-05-18T22:59:39.046Z,7.30
2019-05-18T23:02:09.160Z,7.13
2019-05-18T23:04:38.393Z,7.37
2019-05-18T23:07:07.621Z,6.90
2019-05-18T23:09:36.876Z,7.10
2019-05-18T23:12:06.038Z,7.03
2019-05-18T23:14:35.215Z,7.17
2019-05-18T23:17:04.458Z,7.23
2019-05-18T23:19:33.808Z,7.73
2019-05-18T23:22:03.105Z,7.40
2019-05-18T23:24:32.399Z,7.37
2019-05-18T23:27:01.552Z,7.30
2019-05-18T23:29:30.808Z,7.70
2019-05-18T23:32:00.058Z,6.90
2019-05-18T23:34:29.383Z,6.97
2019-05-18T23:36:58.695Z,7.50
2019-05-18T23:39:27.947Z,8.40
2019-05-18T23:41:57.183Z,7.90
2019-05-18T23:44:26.444Z,7.50
2019-05-18T23:46:55.587Z,7.07
2019-05-18T23:49:24.873Z,7.70
2019-05-18T23:51:54.270Z,7.83
2019-05-18T23:54:23.612Z,7.73
2019-05-18T23:56:52.772Z,8.73
2019-05-18T23:59:21.953Z,9.23
